Time;durP1;ratioP1;P1;durP2;ratioP2;P2;SDS_P1;SDS_P2;PMS_P1;PMS_P2;Temp;Humidity;BMP_temperature;BMP_pressure;BME280_temperature;BME280_humidity;BME280_pressure;Samples;Min_cycle;Max_cycle;Signal;HPM_P1;HPM_P2
2021/01/13 00:02:07;;;;;;;24.70;21.45;;;1.80;96.10;;;;;;5029255;28;20651;-77
2021/01/13 00:04:33;;;;;;;1999.90;588.53;;;1.80;99.20;;;;;;5012447;28;20198;-77
2021/01/13 00:07:01;;;;;;;21.65;19.95;;;1.90;99.20;;;;;;5012322;28;20221;-77
2021/01/13 00:09:27;;;;;;;389.50;73.00;;;1.90;99.40;;;;;;5030753;28;20294;-77
2021/01/13 00:11:55;;;;;;;277.40;49.40;;;2.00;98.30;;;;;;5032227;28;20194;-77
2021/01/13 00:14:23;;;;;;;1999.90;380.13;;;2.00;99.90;;;;;;5032328;28;20752;-77
2021/01/13 00:16:49;;;;;;;1999.90;699.92;;;2.20;99.70;;;;;;5031871;28;20225;-77
2021/01/13 00:19:15;;;;;;;714.97;107.47;;;2.20;99.40;;;;;;5013829;28;20249;-77
2021/01/13 00:21:47;;;;;;;22.85;20.83;;;2.20;99.30;;;;;;5015948;28;20208;-77
2021/01/13 00:24:14;;;;;;;22.42;20.63;;;2.20;98.70;;;;;;5021483;28;20189;-77
2021/01/13 00:26:41;;;;;;;24.15;22.45;;;2.30;98.20;;;;;;5035091;28;20270;-77
2021/01/13 00:29:07;;;;;;;22.73;20.60;;;2.20;97.60;;;;;;5035643;28;20221;-77
2021/01/13 00:31:34;;;;;;;22.10;20.42;;;2.20;98.20;;;;;;5035608;28;20193;-77
2021/01/13 00:34:00;;;;;;;21.08;19.33;;;2.30;97.70;;;;;;5032578;28;20186;-77
2021/01/13 00:36:29;;;;;;;22.38;20.65;;;2.20;96.90;;;;;;5015469;28;20275;-77
2021/01/13 00:38:56;;;;;;;21.85;20.30;;;2.30;97.00;;;;;;5015711;28;20244;-77
2021/01/13 00:41:23;;;;;;;21.95;20.25;;;2.30;96.30;;;;;;5015558;28;20570;-77
2021/01/13 00:43:51;;;;;;;22.08;19.95;;;2.40;96.40;;;;;;5015621;28;20555;-77
2021/01/13 00:46:18;;;;;;;21.02;19.52;;;2.40;95.80;;;;;;5018767;28;20218;-77
2021/01/13 00:48:44;;;;;;;622.58;85.22;;;2.50;95.90;;;;;;5035037;28;20212;-77
2021/01/13 00:51:11;;;;;;;631.45;97.28;;;2.40;97.20;;;;;;5035223;28;20203;-77
2021/01/13 00:53:37;;;;;;;21.60;19.25;;;2.40;98.00;;;;;;5034946;28;20292;-78
2021/01/13 00:56:04;;;;;;;20.50;19.00;;;2.40;98.30;;;;;;5034741;28;20738;-77
2021/01/13 00:58:31;;;;;;;19.35;18.13;;;2.50;97.40;;;;;;5031056;28;20190;-77
2021/01/13 01:00:58;;;;;;;1308.45;191.38;;;2.60;97.10;;;;;;5015119;28;20220;-77
2021/01/13 01:03:25;;;;;;;20.60;19.08;;;2.60;96.70;;;;;;5015322;28;20658;-77
2021/01/13 01:05:52;;;;;;;331.38;51.70;;;2.70;96.40;;;;;;5014987;28;20196;-77
2021/01/13 01:08:18;;;;;;;1110.57;158.00;;;2.70;95.90;;;;;;5016791;28;20201;-78
2021/01/13 01:10:49;;;;;;;22.52;20.45;;;2.60;97.10;;;;;;5034443;28;20220;-77
2021/01/13 01:13:15;;;;;;;22.10;20.33;;;2.70;97.50;;;;;;5034646;28;20197;-77
2021/01/13 01:15:42;;;;;;;21.27;19.70;;;2.70;97.20;;;;;;5034607;28;20209;-78
2021/01/13 01:18:09;;;;;;;21.05;19.08;;;2.60;96.50;;;;;;5033851;28;20224;-77
2021/01/13 01:20:35;;;;;;;20.25;18.95;;;2.70;96.40;;;;;;5014983;28;20194;-78
2021/01/13 01:23:03;;;;;;;20.58;19.15;;;2.70;96.00;;;;;;5014756;28;20272;-78
2021/01/13 01:25:30;;;;;;;21.55;20.00;;;2.70;95.60;;;;;;5014818;28;20202;-77
2021/01/13 01:27:59;;;;;;;21.55;19.48;;;2.70;95.10;;;;;;5014796;28;20309;-78
2021/01/13 01:30:27;;;;;;;20.95;19.48;;;2.70;95.10;;;;;;5017174;28;20217;-77
2021/01/13 01:32:58;;;;;;;20.70;19.30;;;2.70;95.00;;;;;;5033544;28;20208;-78
2021/01/13 01:35:24;;;;;;;622.13;76.55;;;2.60;95.10;;;;;;5034592;28;20567;-77
2021/01/13 01:37:51;;;;;;;1165.47;171.18;;;2.70;95.00;;;;;;5034318;28;20228;-77
2021/01/13 01:40:18;;;;;;;19.77;18.55;;;2.60;96.30;;;;;;5034419;28;20558;-78
2021/01/13 01:42:46;;;;;;;1999.90;398.10;;;2.60;97.20;;;;;;5027941;28;20630;-77
2021/01/13 01:45:16;;;;;;;21.13;19.45;;;2.60;96.40;;;;;;5014407;28;20256;-78
2021/01/13 01:48:15;;;;;;;19.05;17.67;;;2.60;97.30;;;;;;5014243;28;20270;-77
2021/01/13 01:50:44;;;;;;;19.35;17.98;;;2.70;96.90;;;;;;5010921;28;20272;-77
2021/01/13 01:53:49;;;;;;;18.38;17.27;;;2.70;96.90;;;;;;5014548;28;20205;-77
2021/01/13 01:56:25;;;;;;;1201.78;172.82;;;2.80;96.60;;;;;;5034777;28;20213;-77
2021/01/13 01:59:00;;;;;;;19.70;18.35;;;2.90;96.80;;;;;;5035317;28;20592;-77
2021/01/13 02:01:30;;;;;;;19.92;18.30;;;2.80;97.90;;;;;;5033731;28;20205;-77
2021/01/13 02:04:05;;;;;;;20.95;19.45;;;2.80;96.90;;;;;;5033924;28;20205;-77
2021/01/13 02:06:34;;;;;;;152.52;28.83;;;2.80;98.10;;;;;;5031997;28;20221;-77
2021/01/13 02:09:01;;;;;;;19.02;17.52;;;2.80;97.20;;;;;;5013918;28;20198;-78
2021/01/13 02:11:31;;;;;;;18.98;17.38;;;2.80;96.90;;;;;;5013993;28;20279;-77
2021/01/13 02:13:57;;;;;;;20.13;18.70;;;2.80;96.30;;;;;;5014139;28;20198;-77
2021/01/13 02:16:24;;;;;;;17.92;16.63;;;2.80;96.00;;;;;;5013323;28;20225;-77
2021/01/13 02:18:50;;;;;;;18.50;16.88;;;2.80;96.00;;;;;;5013537;28;20190;-77
2021/01/13 02:21:19;;;;;;;1999.90;445.73;;;2.80;95.90;;;;;;5013471;28;20272;-77
2021/01/13 02:23:48;;;;;;;17.85;16.48;;;2.80;98.50;;;;;;5013782;28;20228;-78
2021/01/13 02:26:56;;;;;;;18.17;17.08;;;2.90;97.30;;;;;;5013568;28;20215;-78
2021/01/13 02:29:37;;;;;;;71.68;23.63;;;3.00;96.10;;;;;;4993936;28;20223;-78
2021/01/13 02:32:16;;;;;;;18.60;17.30;;;2.90;97.60;;;;;;4993957;28;20195;-78
2021/01/13 02:34:56;;;;;;;173.88;35.42;;;2.80;97.80;;;;;;5012813;28;20202;-77
2021/01/13 02:37:52;;;;;;;24.63;19.20;;;2.80;98.60;;;;;;5020983;28;20209;-77
2021/01/13 02:40:22;;;;;;;18.60;17.30;;;2.80;98.20;;;;;;5033322;28;20197;-77
2021/01/13 02:43:08;;;;;;;20.48;18.67;;;2.80;97.80;;;;;;5032868;28;20288;-78
2021/01/13 02:45:40;;;;;;;18.83;17.73;;;2.80;98.10;;;;;;5033048;28;20235;-77
2021/01/13 02:48:14;;;;;;;17.70;16.58;;;2.80;97.90;;;;;;5033072;28;20253;-78
2021/01/13 02:50:54;;;;;;;18.38;17.15;;;2.80;97.60;;;;;;5014679;28;20690;-78
2021/01/13 02:53:49;;;;;;;17.27;16.27;;;2.80;97.30;;;;;;5013497;28;20652;-77
2021/01/13 02:56:32;;;;;;;769.47;115.43;;;2.80;97.00;;;;;;5012759;28;20725;-77
2021/01/13 02:59:06;;;;;;;1999.90;658.63;;;2.80;96.90;;;;;;5009589;28;20543;-77
2021/01/13 03:01:37;;;;;;;17.75;16.58;;;2.80;98.10;;;;;;5032793;28;20259;-78
2021/01/13 03:04:04;;;;;;;1999.90;426.88;;;2.80;98.40;;;;;;5033022;28;20211;-77
2021/01/13 03:06:38;;;;;;;56.05;21.80;;;2.80;99.40;;;;;;5032521;28;20724;-78
2021/01/13 03:09:07;;;;;;;19.02;17.77;;;2.80;99.90;;;;;;5013520;28;20686;-78
2021/01/13 03:11:34;;;;;;;17.95;16.73;;;2.70;99.10;;;;;;5013092;28;20284;-78
2021/01/13 03:14:12;;;;;;;450.58;60.15;;;2.80;98.50;;;;;;5013240;28;20202;-77
2021/01/13 03:16:45;;;;;;;17.85;16.73;;;2.80;98.60;;;;;;5012938;28;20222;-77
2021/01/13 03:19:19;;;;;;;18.63;17.50;;;2.70;97.70;;;;;;5032763;28;20201;-78
2021/01/13 03:21:55;;;;;;;93.78;23.52;;;2.70;99.20;;;;;;5032969;28;20199;-77
2021/01/13 03:24:35;;;;;;;327.45;54.33;;;2.80;98.70;;;;;;5037580;28;20205;-78
2021/01/13 03:27:03;;;;;;;19.38;17.80;;;2.80;99.50;;;;;;5037265;28;20227;-78
2021/01/13 03:29:31;;;;;;;19.02;17.77;;;2.80;98.40;;;;;;5036030;28;20217;-78
2021/01/13 03:32:07;;;;;;;1182.57;175.98;;;2.90;98.70;;;;;;5032947;28;20259;-77
2021/01/13 03:34:39;;;;;;;18.42;17.27;;;2.80;99.40;;;;;;5033012;28;20220;-78
2021/01/13 03:37:16;;;;;;;18.48;16.90;;;2.70;99.50;;;;;;5029889;28;20217;-77
2021/01/13 03:39:43;;;;;;;19.20;17.65;;;2.70;98.70;;;;;;5026977;28;20654;-77
2021/01/13 03:42:13;;;;;;;18.13;16.90;;;2.80;98.10;;;;;;5032453;28;20197;-78
2021/01/13 03:44:41;;;;;;;19.10;17.80;;;2.80;97.00;;;;;;5032324;28;20197;-78
2021/01/13 03:47:55;;;;;;;18.88;17.60;;;2.80;96.30;;;;;;5032626;28;20221;-77
2021/01/13 03:50:24;;;;;;;18.60;17.40;;;2.70;95.70;;;;;;5012993;28;20322;-78
2021/01/13 03:53:03;;;;;;;19.00;17.70;;;2.70;95.70;;;;;;5014793;28;20373;-77
2021/01/13 03:55:31;;;;;;;44.75;20.58;;;2.70;95.00;;;;;;5015706;28;20621;-78
2021/01/13 03:58:13;;;;;;;17.90;16.67;;;2.60;96.00;;;;;;5016442;28;20222;-77
2021/01/13 04:01:00;;;;;;;19.38;18.17;;;2.60;98.00;;;;;;5008154;28;20208;-78
2021/01/13 04:03:30;;;;;;;17.95;16.55;;;2.60;96.80;;;;;;5016609;28;20285;-78
2021/01/13 04:06:05;;;;;;;19.48;18.13;;;2.50;96.60;;;;;;5016239;28;20288;-77
2021/01/13 04:08:39;;;;;;;1999.90;599.63;;;2.50;96.20;;;;;;5019311;28;20193;-78
2021/01/13 04:11:08;;;;;;;129.63;29.45;;;2.50;96.80;;;;;;5036524;28;20763;-77
2021/01/13 04:13:42;;;;;;;18.33;17.00;;;2.50;99.30;;;;;;5036257;28;20204;-77
2021/01/13 04:16:11;;;;;;;18.23;16.98;;;2.40;98.20;;;;;;5035914;28;20231;-77
2021/01/13 04:18:39;;;;;;;18.90;17.35;;;2.40;97.20;;;;;;5020236;28;20204;-77
2021/01/13 04:21:09;;;;;;;17.95;16.95;;;2.30;96.90;;;;;;5016144;28;20755;-78
2021/01/13 04:23:36;;;;;;;19.60;17.80;;;2.20;96.80;;;;;;5016074;28;20610;-78
2021/01/13 04:26:04;;;;;;;19.15;17.85;;;2.20;96.70;;;;;;5023519;28;20243;-77
2021/01/13 04:28:31;;;;;;;1147.85;157.52;;;2.10;96.80;;;;;;5035116;28;20197;-78
2021/01/13 04:30:57;;;;;;;1686.57;235.65;;;2.10;97.00;;;;;;5031501;28;20218;-78
2021/01/13 04:33:24;;;;;;;18.65;17.45;;;2.20;97.10;;;;;;5016049;28;20194;-78
2021/01/13 04:35:52;;;;;;;475.65;85.85;;;2.10;98.00;;;;;;5016722;28;20297;-78
2021/01/13 04:38:23;;;;;;;1362.13;192.77;;;2.20;97.60;;;;;;5015900;28;20194;-77
2021/01/13 04:40:51;;;;;;;1999.90;464.73;;;2.20;97.70;;;;;;5017974;28;20194;-78
2021/01/13 04:43:24;;;;;;;23.27;18.92;;;2.20;99.90;;;;;;5035827;28;20203;-78
2021/01/13 04:45:51;;;;;;;1999.90;620.88;;;2.30;99.90;;;;;;5029244;28;20205;-78
2021/01/13 04:48:18;;;;;;;245.13;43.72;;;2.30;99.90;;;;;;5023771;28;20198;-78
2021/01/13 04:50:48;;;;;;;15.77;14.68;;;2.30;99.90;;;;;;5034882;28;20621;-77
2021/01/13 04:53:16;;;;;;;368.95;56.38;;;2.30;99.90;;;;;;5034267;28;20196;-77
2021/01/13 04:55:50;;;;;;;231.15;38.75;;;2.30;99.90;;;;;;5015314;28;20677;-77
2021/01/13 04:59:04;;;;;;;1745.53;209.40;;;2.30;99.90;;;;;;5015513;28;20192;-78
2021/01/13 05:02:00;;;;;;;395.75;69.03;;;2.30;99.90;;;;;;5009750;28;20194;-77
2021/01/13 05:04:59;;;;;;;17.95;16.75;;;2.20;99.90;;;;;;5035072;28;20270;-77
2021/01/13 05:07:37;;;;;;;385.40;69.43;;;2.30;99.90;;;;;;5001439;28;20725;-77
2021/01/13 05:10:10;;;;;;;17.50;16.50;;;2.10;99.90;;;;;;5034956;28;20234;-77
2021/01/13 05:12:56;;;;;;;20.15;18.70;;;2.00;99.90;;;;;;5018118;28;20197;-77
2021/01/13 05:15:25;;;;;;;18.70;17.50;;;2.00;99.90;;;;;;5028826;28;20254;-77
2021/01/13 05:18:03;;;;;;;19.20;17.85;;;2.00;99.90;;;;;;5034758;28;20221;-77
2021/01/13 05:20:31;;;;;;;19.08;17.35;;;2.00;99.70;;;;;;5034782;28;20189;-77
2021/01/13 05:22:58;;;;;;;19.33;17.73;;;2.00;99.60;;;;;;5015167;28;20233;-77
2021/01/13 05:25:52;;;;;;;18.63;17.15;;;2.00;98.90;;;;;;5015538;28;20202;-77
2021/01/13 05:28:22;;;;;;;17.65;16.35;;;2.10;98.60;;;;;;5016014;28;20221;-78
2021/01/13 05:30:51;;;;;;;18.30;17.10;;;2.10;99.90;;;;;;5016805;28;20218;-78
2021/01/13 05:33:20;;;;;;;18.70;17.40;;;2.00;98.20;;;;;;5034425;28;20194;-78
2021/01/13 05:35:49;;;;;;;18.92;17.75;;;2.00;97.90;;;;;;4998643;28;20200;-77
2021/01/13 05:38:19;;;;;;;18.02;16.88;;;2.10;97.90;;;;;;4995044;28;20253;-78
2021/01/13 05:40:47;;;;;;;18.70;17.20;;;2.00;97.50;;;;;;4997148;28;20198;-77
2021/01/13 05:43:15;;;;;;;1999.90;510.77;;;2.00;98.00;;;;;;5034380;28;20201;-77
2021/01/13 05:45:43;;;;;;;18.77;17.33;;;2.00;99.90;;;;;;5034211;28;20205;-78
2021/01/13 05:48:18;;;;;;;19.15;17.40;;;2.00;99.90;;;;;;5034381;28;20220;-78
2021/01/13 05:50:46;;;;;;;1944.28;323.27;;;2.00;98.40;;;;;;5036209;28;20221;-78
2021/01/13 05:53:13;;;;;;;19.55;18.15;;;2.00;98.40;;;;;;5036321;28;20280;-77
2021/01/13 05:55:48;;;;;;;18.75;17.33;;;2.00;99.90;;;;;;5033417;28;20212;-77
2021/01/13 05:58:15;;;;;;;19.77;17.98;;;1.90;98.80;;;;;;5034266;28;20206;-77
2021/01/13 06:00:43;;;;;;;18.38;17.08;;;1.90;98.50;;;;;;5017203;28;20198;-77
2021/01/13 06:03:12;;;;;;;18.73;17.33;;;2.00;98.00;;;;;;5014294;28;20208;-77
2021/01/13 06:05:50;;;;;;;25.80;18.92;;;1.90;97.30;;;;;;5013951;28;20206;-77
2021/01/13 06:08:17;;;;;;;602.65;80.07;;;1.90;98.30;;;;;;5032107;28;20193;-77
2021/01/13 06:10:44;;;;;;;19.63;17.95;;;1.80;97.90;;;;;;5033609;28;20217;-78
2021/01/13 06:13:18;;;;;;;18.70;17.35;;;1.80;97.60;;;;;;5033908;28;20192;-78
2021/01/13 06:15:46;;;;;;;19.50;18.10;;;1.70;97.90;;;;;;5033506;28;20201;-78
2021/01/13 06:18:22;;;;;;;66.85;23.45;;;1.70;98.60;;;;;;5015337;28;20216;-78
2021/01/13 06:20:48;;;;;;;18.83;17.63;;;1.70;97.70;;;;;;5013933;28;20259;-78
2021/01/13 06:23:16;;;;;;;1999.90;993.22;;;1.70;98.20;;;;;;5013927;28;20198;-77
2021/01/13 06:25:45;;;;;;;167.02;36.45;;;1.70;99.90;;;;;;5013815;28;20244;-78
2021/01/13 06:28:33;;;;;;;130.65;29.63;;;1.70;99.90;;;;;;5030617;28;20217;-77
2021/01/13 06:31:06;;;;;;;605.47;103.88;;;1.60;99.90;;;;;;5033537;28;20221;-78
2021/01/13 06:33:35;;;;;;;167.25;42.67;;;1.70;99.30;;;;;;5022785;28;20197;-78
2021/01/13 06:36:22;;;;;;;25.50;23.35;;;1.60;99.40;;;;;;5013299;28;20202;-78
2021/01/13 06:38:54;;;;;;;21.30;19.52;;;1.50;99.80;;;;;;5013477;28;20201;-78
2021/01/13 06:41:21;;;;;;;1999.90;382.20;;;1.50;99.90;;;;;;5013567;28;20724;-77
2021/01/13 06:43:58;;;;;;;22.55;20.33;;;1.50;99.90;;;;;;5013336;28;20194;-78
2021/01/13 06:46:25;;;;;;;22.20;20.23;;;1.50;99.90;;;;;;5013140;28;20221;-78
2021/01/13 06:48:51;;;;;;;21.08;19.38;;;1.50;99.90;;;;;;5018491;28;20218;-78
2021/01/13 06:51:19;;;;;;;19.75;17.80;;;1.50;99.70;;;;;;5020099;28;20216;-78
2021/01/13 06:53:46;;;;;;;20.60;19.20;;;1.40;99.30;;;;;;5013366;28;20258;-78
2021/01/13 06:56:14;;;;;;;20.33;18.92;;;1.40;99.10;;;;;;5012735;28;20228;-77
2021/01/13 06:58:55;;;;;;;1130.47;180.93;;;1.30;98.60;;;;;;5015810;28;21416;-78
2021/01/13 07:01:22;;;;;;;20.05;18.55;;;1.30;99.40;;;;;;5027435;28;20190;-77
2021/01/13 07:03:59;;;;;;;21.17;19.42;;;1.30;99.50;;;;;;5022398;28;20551;-78
2021/01/13 07:06:25;;;;;;;654.58;97.35;;;1.30;98.70;;;;;;5013931;28;20718;-78
2021/01/13 07:08:52;;;;;;;1999.90;978.00;;;1.30;99.40;;;;;;5012982;28;20563;-78
2021/01/13 07:11:19;;;;;;;21.83;20.23;;;1.20;99.90;;;;;;5013057;28;20228;-77
2021/01/13 07:13:54;;;;;;;529.92;93.70;;;1.20;99.90;;;;;;5013037;28;20237;-78
2021/01/13 07:16:27;;;;;;;20.10;18.45;;;1.20;99.90;;;;;;5013429;28;20228;-78
2021/01/13 07:18:57;;;;;;;24.33;22.33;;;1.20;99.90;;;;;;5019374;28;20197;-78
2021/01/13 07:21:37;;;;;;;26.33;24.40;;;1.20;99.90;;;;;;5012783;28;20248;-77
2021/01/13 07:24:12;;;;;;;24.13;22.38;;;1.20;99.90;;;;;;5015233;28;20255;-77
2021/01/13 07:26:40;;;;;;;33.50;29.90;;;1.20;99.90;;;;;;5032354;28;20217;-78
2021/01/13 07:29:07;;;;;;;25.83;23.17;;;1.20;99.90;;;;;;5024462;28;20197;-78
2021/01/13 07:31:34;;;;;;;26.85;23.67;;;1.20;99.90;;;;;;5036043;28;20212;-78
2021/01/13 07:34:08;;;;;;;24.00;22.00;;;1.30;99.90;;;;;;5035117;28;20594;-78
2021/01/13 07:36:39;;;;;;;25.85;23.33;;;1.20;99.80;;;;;;5029427;28;20241;-78
2021/01/13 07:39:07;;;;;;;1999.90;475.38;;;1.20;99.70;;;;;;5016725;28;20202;-78
2021/01/13 07:42:10;;;;;;;48.85;24.60;;;1.20;99.90;;;;;;5016760;28;20655;-78
2021/01/13 07:44:41;;;;;;;1999.90;707.08;;;1.20;99.90;;;;;;5035133;28;20197;-77
2021/01/13 07:47:30;;;;;;;1999.90;760.85;;;1.30;99.90;;;;;;5034837;28;20294;-78
2021/01/13 07:50:08;;;;;;;21.33;19.42;;;1.30;99.90;;;;;;5020774;28;20257;-77
2021/01/13 07:52:42;;;;;;;1558.28;271.90;;;1.40;99.90;;;;;;5016596;28;20199;-78
2021/01/13 07:55:17;;;;;;;1999.90;657.08;;;1.50;99.90;;;;;;5017535;28;20231;-78
2021/01/13 07:57:47;;;;;;;716.78;95.43;;;1.50;99.90;;;;;;5016290;28;20219;-77
2021/01/13 08:00:28;;;;;;;22.25;20.15;;;1.50;99.90;;;;;;5016494;28;20194;-77
2021/01/13 08:03:37;;;;;;;23.50;21.40;;;1.50;99.90;;;;;;5020741;28;20259;-77
2021/01/13 08:06:30;;;;;;;38.78;23.92;;;1.60;99.90;;;;;;5033278;28;20671;-77
2021/01/13 08:09:19;;;;;;;397.60;64.00;;;1.60;99.90;;;;;;5024439;28;20654;-77
2021/01/13 08:12:45;;;;;;;22.83;20.65;;;1.50;99.90;;;;;;5001048;28;20221;-77
2021/01/13 08:15:44;;;;;;;23.00;21.02;;;1.70;99.90;;;;;;5015971;28;20198;-77
2021/01/13 08:18:57;;;;;;;23.45;21.13;;;1.60;99.90;;;;;;4979592;28;20222;-77
2021/01/13 08:21:26;;;;;;;23.98;21.58;;;1.70;99.90;;;;;;4996641;28;20194;-77
2021/01/13 08:24:01;;;;;;;21.65;19.95;;;1.90;99.90;;;;;;4996666;28;20203;-77
2021/01/13 08:26:29;;;;;;;24.88;22.58;;;2.10;99.70;;;;;;5010005;28;20220;-77
2021/01/13 08:29:01;;;;;;;21.13;19.33;;;2.10;99.90;;;;;;5035984;28;20197;-78
2021/01/13 08:31:28;;;;;;;23.70;20.40;;;2.20;99.50;;;;;;5036589;28;20217;-77
2021/01/13 08:34:06;;;;;;;1999.90;665.83;;;2.20;99.90;;;;;;5036036;28;20659;-78
2021/01/13 08:36:33;;;;;;;36.67;23.45;;;2.40;99.90;;;;;;5028448;28;20213;-78
2021/01/13 08:39:12;;;;;;;21.88;19.70;;;2.30;99.60;;;;;;5015939;28;20193;-78
2021/01/13 08:41:40;;;;;;;21.30;19.50;;;2.40;98.50;;;;;;5015226;28;20194;-77
2021/01/13 08:44:10;;;;;;;18.38;16.92;;;2.50;97.00;;;;;;5015779;28;20198;-77
2021/01/13 08:46:52;;;;;;;21.55;19.45;;;2.50;96.80;;;;;;5015155;28;20210;-77
2021/01/13 08:49:24;;;;;;;20.92;19.23;;;2.70;96.00;;;;;;5015743;28;20201;-78
2021/01/13 08:52:22;;;;;;;19.08;17.77;;;2.80;94.50;;;;;;5015340;28;20218;-77
2021/01/13 08:55:14;;;;;;;20.38;18.80;;;2.90;93.50;;;;;;4957440;28;20593;-77
2021/01/13 08:58:02;;;;;;;21.20;19.17;;;3.00;92.50;;;;;;5023550;28;20565;-78
2021/01/13 09:00:30;;;;;;;18.95;17.80;;;3.00;90.90;;;;;;5034893;28;20201;-78
2021/01/13 09:03:10;;;;;;;20.58;18.88;;;3.00;90.90;;;;;;5028566;28;20238;-77
2021/01/13 09:05:38;;;;;;;21.05;19.58;;;3.10;90.80;;;;;;5015183;28;20197;-78
2021/01/13 09:08:07;;;;;;;18.70;17.30;;;3.10;89.70;;;;;;5015135;28;20225;-78
2021/01/13 09:10:54;;;;;;;20.85;19.55;;;3.10;90.00;;;;;;5015142;28;20222;-77
2021/01/13 09:13:39;;;;;;;21.85;19.58;;;3.20;90.20;;;;;;5012265;28;20204;-78
2021/01/13 09:16:28;;;;;;;18.85;17.65;;;3.30;91.10;;;;;;5015165;28;20198;-77
2021/01/13 09:18:55;;;;;;;21.30;19.90;;;3.40;90.40;;;;;;5015365;28;20194;-78
2021/01/13 09:21:28;;;;;;;19.55;18.35;;;3.60;87.50;;;;;;5014959;28;20429;-78
2021/01/13 09:23:56;;;;;;;21.48;20.10;;;3.70;86.80;;;;;;5033728;28;20720;-78
2021/01/13 09:26:31;;;;;;;22.05;20.33;;;3.80;85.90;;;;;;5034457;28;20225;-78
2021/01/13 09:29:00;;;;;;;21.30;19.67;;;4.00;84.70;;;;;;5027335;28;20228;-77
2021/01/13 09:31:27;;;;;;;20.95;19.73;;;4.00;84.40;;;;;;5014947;28;20225;-78
2021/01/13 09:33:54;;;;;;;21.13;19.63;;;4.10;84.90;;;;;;5015122;28;20198;-78
2021/01/13 09:36:20;;;;;;;22.42;20.90;;;4.10;84.00;;;;;;5014875;28;20217;-78
2021/01/13 09:38:49;;;;;;;20.98;19.35;;;4.20;83.50;;;;;;5014660;28;20202;-78
2021/01/13 09:41:24;;;;;;;22.63;21.08;;;4.30;82.00;;;;;;5015340;28;20190;-78
2021/01/13 09:44:07;;;;;;;21.23;19.88;;;4.30;81.60;;;;;;5018236;28;20205;-78
2021/01/13 09:46:35;;;;;;;21.23;19.33;;;4.30;81.70;;;;;;5019284;28;20706;-78
2021/01/13 09:49:03;;;;;;;20.10;18.90;;;4.40;81.60;;;;;;5031195;28;20375;-77
2021/01/13 09:51:31;;;;;;;21.45;20.08;;;4.30;84.50;;;;;;5034494;28;20309;-78
2021/01/13 09:54:00;;;;;;;20.27;19.00;;;4.40;83.00;;;;;;5034005;28;20209;-78
2021/01/13 09:56:28;;;;;;;20.83;19.40;;;4.50;81.80;;;;;;5034209;28;20221;-77
2021/01/13 09:58:55;;;;;;;21.40;19.83;;;4.50;82.00;;;;;;5026061;28;20252;-78
2021/01/13 10:01:24;;;;;;;19.80;18.02;;;4.60;82.60;;;;;;5014920;28;20197;-78
2021/01/13 10:03:55;;;;;;;20.80;19.55;;;4.70;83.00;;;;;;4994860;28;20203;-78
2021/01/13 10:06:23;;;;;;;21.38;19.80;;;4.70;80.50;;;;;;4994726;28;20225;-77
2021/01/13 10:08:51;;;;;;;22.30;20.08;;;4.60;79.90;;;;;;5022867;28;20252;-78
2021/01/13 10:11:19;;;;;;;22.83;21.23;;;4.60;80.10;;;;;;5014451;28;20217;-78
2021/01/13 10:13:47;;;;;;;21.33;19.92;;;4.60;80.10;;;;;;5014468;28;20198;-78
2021/01/13 10:16:14;;;;;;;21.45;20.15;;;4.70;80.50;;;;;;5014068;28;20218;-78
2021/01/13 10:18:52;;;;;;;22.42;20.85;;;4.80;80.80;;;;;;5026578;28;20197;-78
2021/01/13 10:21:19;;;;;;;21.10;19.85;;;4.90;80.10;;;;;;5034355;28;20197;-78
2021/01/13 10:23:47;;;;;;;22.48;20.90;;;5.00;80.30;;;;;;5033870;28;20666;-78
2021/01/13 10:26:14;;;;;;;21.98;20.58;;;5.30;78.90;;;;;;5027164;28;20217;-77
2021/01/13 10:28:41;;;;;;;20.80;19.50;;;5.20;80.60;;;;;;5014183;28;20208;-77
2021/01/13 10:31:09;;;;;;;23.38;21.88;;;5.20;80.90;;;;;;5014066;28;20712;-78
2021/01/13 10:33:48;;;;;;;22.58;20.98;;;5.30;80.20;;;;;;5014265;28;20628;-78
2021/01/13 10:36:39;;;;;;;22.02;20.70;;;5.30;78.70;;;;;;5019518;28;20245;-78
2021/01/13 10:39:14;;;;;;;23.25;21.85;;;5.30;79.20;;;;;;5033438;28;20658;-77
2021/01/13 10:41:42;;;;;;;22.52;21.13;;;5.30;77.60;;;;;;5033933;28;20554;-78
2021/01/13 10:44:12;;;;;;;23.77;22.05;;;5.20;80.50;;;;;;5033329;28;20579;-78
2021/01/13 10:46:48;;;;;;;24.15;22.45;;;5.20;79.60;;;;;;5024007;28;20296;-78
2021/01/13 10:49:26;;;;;;;22.77;21.48;;;5.30;77.00;;;;;;5013598;28;20197;-78
2021/01/13 10:51:56;;;;;;;24.73;22.20;;;5.30;77.10;;;;;;5013628;28;20234;-78
2021/01/13 10:54:24;;;;;;;21.63;20.30;;;5.40;76.60;;;;;;5013494;28;20276;-78
2021/01/13 10:56:59;;;;;;;22.17;20.88;;;5.50;76.30;;;;;;5023253;28;20716;-78
2021/01/13 10:59:28;;;;;;;22.95;21.52;;;5.60;76.00;;;;;;5033259;28;20198;-78
2021/01/13 11:01:59;;;;;;;24.20;22.52;;;5.50;76.90;;;;;;5032771;28;20578;-78
2021/01/13 11:04:30;;;;;;;25.10;23.38;;;5.60;76.00;;;;;;5033163;28;20193;-78
2021/01/13 11:07:00;;;;;;;23.50;21.63;;;5.80;78.50;;;;;;5024095;28;20224;-78
2021/01/13 11:09:27;;;;;;;23.65;22.35;;;5.90;78.40;;;;;;5032804;28;20205;-79
2021/01/13 11:11:55;;;;;;;23.02;21.55;;;5.80;77.60;;;;;;5032799;28;20220;-78
2021/01/13 11:14:36;;;;;;;23.98;22.20;;;6.00;75.70;;;;;;5033026;28;20216;-78
2021/01/13 11:17:05;;;;;;;24.92;23.40;;;6.20;74.00;;;;;;5020596;28;20222;-78
2021/01/13 11:19:32;;;;;;;23.63;21.83;;;6.10;77.40;;;;;;5013063;28;20594;-78
2021/01/13 11:22:00;;;;;;;22.25;21.02;;;6.30;77.00;;;;;;5013192;28;20216;-78
2021/01/13 11:24:38;;;;;;;25.23;23.40;;;6.50;74.80;;;;;;5012914;28;20230;-78
2021/01/13 11:27:07;;;;;;;24.52;23.00;;;6.60;72.20;;;;;;5024287;28;20275;-78
2021/01/13 11:29:36;;;;;;;25.17;23.75;;;6.70;71.90;;;;;;5032539;28;20201;-78
2021/01/13 11:32:04;;;;;;;23.70;22.40;;;6.70;70.70;;;;;;5032784;28;20224;-78
2021/01/13 11:34:31;;;;;;;22.30;21.00;;;6.60;71.50;;;;;;5032924;28;20197;-78
2021/01/13 11:37:38;;;;;;;23.85;22.48;;;6.50;78.10;;;;;;5021710;28;20210;-78
2021/01/13 11:40:46;;;;;;;24.17;22.70;;;6.50;72.00;;;;;;4977756;28;20282;-78
2021/01/13 11:43:53;;;;;;;25.45;23.88;;;6.40;71.70;;;;;;4978539;28;20703;-78
2021/01/13 11:46:28;;;;;;;24.60;23.00;;;6.40;72.70;;;;;;5032290;28;20213;-78
2021/01/13 11:49:18;;;;;;;23.08;21.60;;;6.40;72.10;;;;;;5025266;28;20217;-78
2021/01/13 11:51:48;;;;;;;25.52;24.13;;;6.40;70.40;;;;;;5020220;28;20682;-78
2021/01/13 11:54:24;;;;;;;23.88;22.20;;;6.30;71.20;;;;;;5032783;28;20569;-78
2021/01/13 11:56:51;;;;;;;23.58;22.05;;;6.40;71.70;;;;;;5032064;28;20577;-78
2021/01/13 11:59:25;;;;;;;23.58;22.27;;;6.40;71.10;;;;;;5032659;28;20662;-78
2021/01/13 12:01:52;;;;;;;23.55;22.10;;;6.30;69.70;;;;;;5022503;28;20224;-78
2021/01/13 12:04:19;;;;;;;25.10;23.50;;;6.30;71.60;;;;;;5012971;28;20201;-78
2021/01/13 12:06:55;;;;;;;22.95;21.65;;;6.30;71.30;;;;;;5012365;28;20223;-78
2021/01/13 12:09:22;;;;;;;23.20;21.70;;;6.30;69.90;;;;;;5012655;28;20198;-78
2021/01/13 12:11:49;;;;;;;24.58;22.85;;;6.20;70.60;;;;;;5012123;28;20221;-78
2021/01/13 12:14:16;;;;;;;23.52;22.13;;;6.20;71.30;;;;;;4993387;28;20201;-78
2021/01/13 12:16:42;;;;;;;23.73;22.23;;;6.20;71.00;;;;;;5011849;28;20223;-78
2021/01/13 12:19:08;;;;;;;24.67;23.38;;;6.10;76.20;;;;;;5016394;28;20198;-78
2021/01/13 12:21:35;;;;;;;24.70;23.10;;;6.10;72.10;;;;;;5022910;28;20185;-78
2021/01/13 12:24:14;;;;;;;23.52;21.83;;;6.20;72.40;;;;;;5036043;28;20248;-78
2021/01/13 12:26:42;;;;;;;22.80;21.40;;;6.30;72.60;;;;;;5035357;28;20216;-78
2021/01/13 12:29:18;;;;;;;25.23;23.17;;;6.40;69.20;;;;;;5035871;28;20197;-78
2021/01/13 12:31:46;;;;;;;22.98;21.40;;;6.40;69.50;;;;;;5027506;28;20764;-78
2021/01/13 12:34:14;;;;;;;22.60;21.38;;;6.50;69.30;;;;;;5015883;28;20640;-78
2021/01/13 12:36:42;;;;;;;22.92;21.73;;;6.50;69.10;;;;;;5015913;28;20228;-78
2021/01/13 12:39:09;;;;;;;23.50;21.88;;;6.40;69.50;;;;;;5016044;28;20202;-78
2021/01/13 12:41:37;;;;;;;22.35;21.02;;;6.50;69.00;;;;;;5022170;28;20192;-78
2021/01/13 12:44:06;;;;;;;23.02;21.48;;;6.50;69.10;;;;;;5035740;28;20683;-78
2021/01/13 12:46:34;;;;;;;22.88;21.58;;;6.40;68.10;;;;;;5035520;28;20221;-78
2021/01/13 12:49:01;;;;;;;22.92;21.45;;;6.40;68.60;;;;;;5027493;28;20244;-78
2021/01/13 12:51:28;;;;;;;21.67;20.27;;;6.40;68.10;;;;;;5022823;28;20732;-78
2021/01/13 12:53:55;;;;;;;23.67;21.90;;;6.40;68.20;;;;;;5015468;28;20209;-78
2021/01/13 12:56:26;;;;;;;23.70;22.25;;;6.30;67.30;;;;;;5015187;28;20222;-78
2021/01/13 12:58:53;;;;;;;23.52;22.05;;;6.30;67.50;;;;;;5026938;28;20193;-78
2021/01/13 13:01:21;;;;;;;23.88;22.40;;;6.30;68.20;;;;;;5035133;28;20200;-78
2021/01/13 13:03:48;;;;;;;23.52;22.33;;;6.30;67.50;;;;;;5018059;28;20190;-78